Aérodrome :
LOGIN :

S'inscrire | Disclaimer

   EN    FR    IT 

 










Légende :    VFR   VFR Marginal   IFR   IFR Intensif   IFR Très Intensif
Visi : 
Plafond : 
>= 8 km
>= 3000ft
5 à 8 km
1000 à 3000 ft
1500m à 5 km
500 à 1000 ft
800 à 1500m
200 à 500 ft
< 800m
< 200 ft
Symboles :   Orages  Brouillard  Fortes neiges  Fortes précipitations  Vent > 20 kt
SIGMETs :   Divers  Orages  Givrage  Turbulence  Onde Orograph.  Cendres Volcan.







- Altitude de l'aérodrome : 126 ft
- Code IATA : WIC
- Voir les cartes d'approche


EGPC - Wick

DERNIER METAR :
  • 230650Z 35011KT 9999 -RA BKN010 02/02 Q0978

METARs EXPIRÉS :
  • 230620Z AUTO 01021KT 9000 -RA BKN009/// 02/02 Q0978
  • 230550Z AUTO 01020KT 8000 -RA OVC008/// 02/02 Q0977
  • 230520Z AUTO 02020KT 7000 -RA BKN010/// 03/02 Q0977 RERA
  • 230450Z AUTO 03018KT 7000 -RA BKN011/// 03/02 Q0977
  • 230420Z AUTO 02017KT 8000 -RA BKN011/// 03/02 Q0977

TAF TAF EGPC
Valide du 23 à 06h jusqu'au 23 à 15h UTC


230454Z 2306/2315 02018KT 9999 FEW010 SCT035
PROB40
TEMPO 2306/2312 4000 SHRASN BKN006
BECMG 2309/2312 31015KT
TEMPO 2312/2315 4000 SHRASN BKN004
ATIS : +44 1955 607 596
Pas de NOTAMs connus pour ce terrain.
1 SIGMET publié pour la FIR Scottish (EGPX) :
 
Turbulence forte
EGPX SIGMET 02 VALID 230600/231000 EGRR
EGPX SCOTTISH FIR SEV TURB FCST E OF LINE N5500 E00258 - N5720 E00427 SFC/FL060 MOV E 20KT WKN=



MET'MAP, la Météo Aéronautique d'un coup d'oeil ! - Copyright ORBIFLY Décembre 2007 - Disclaimer

ORBIFLY MET'MAP TEAM :

Programmation & Développement : Alexandra Zaïnal
Conception & Développement : Baudouin d'Aumeries
Co-Programmation & Développement : Marc-Olivier Méhu
Soutien technique & logistique : Manuel Goepfert

Contact : metmap@orbifly.com




SOURCES & CREDITS :

   NOAA